Time;durP1;ratioP1;P1;durP2;ratioP2;P2;SDS_P1;SDS_P2;PMS_P1;PMS_P2;Temp;Humidity;BMP_temperature;BMP_pressure;BME280_temperature;BME280_humidity;BME280_pressure;Samples;Min_cycle;Max_cycle;Signal;HPM_P1;HPM_P2
2022/03/02 00:05:44;;;;;;;5.00;3.10;;;;;;;20.34;42.70;101299.75;20653408;27;97131;-77
2022/03/02 00:15:45;;;;;;;4.60;3.10;;;;;;;20.30;42.83;101291.19;20648560;27;98272;-77
2022/03/02 00:25:47;;;;;;;3.92;2.88;;;;;;;20.31;42.63;101291.09;20648113;27;97341;-77
2022/03/02 00:35:47;;;;;;;4.38;3.03;;;;;;;20.24;42.82;101281.88;20660262;28;100743;-78
2022/03/02 00:45:48;;;;;;;4.63;3.30;;;;;;;20.23;42.71;101271.44;20649735;27;99325;-78
2022/03/02 00:55:48;;;;;;;3.85;3.00;;;;;;;20.21;42.85;101249.66;20649891;28;98386;-77
2022/03/02 01:05:49;;;;;;;3.78;2.72;;;;;;;20.18;42.96;101241.94;20657114;28;99667;-77
2022/03/02 01:15:52;;;;;;;4.22;3.00;;;;;;;20.15;42.78;101216.66;20649290;27;97025;-77
2022/03/02 01:25:53;;;;;;;5.47;3.10;;;;;;;20.11;42.63;101221.25;20643517;28;97803;-76
2022/03/02 01:35:53;;;;;;;5.28;2.90;;;;;;;20.09;42.48;101202.13;20642274;28;97345;-77
2022/03/02 01:45:54;;;;;;;4.28;2.97;;;;;;;20.05;42.38;101195.34;20661124;28;96955;-78
2022/03/02 01:55:58;;;;;;;4.53;3.08;;;;;;;20.01;42.43;101193.84;20652307;28;97877;-76
2022/03/02 02:06:00;;;;;;;6.78;3.20;;;;;;;20.00;42.45;101197.41;20641752;27;98927;-76
2022/03/02 02:16:04;;;;;;;4.53;3.13;;;;;;;19.97;42.41;101176.56;20647459;28;101346;-76
2022/03/02 02:26:06;;;;;;;5.10;3.47;;;;;;;19.96;42.44;101180.13;20667193;27;96947;-77
2022/03/02 02:36:07;;;;;;;3.43;2.70;;;;;;;19.92;42.40;101176.84;20649889;28;99939;-76
2022/03/02 02:46:08;;;;;;;4.50;3.38;;;;;;;19.89;42.32;101174.38;20657968;28;101732;-77
2022/03/02 02:56:08;;;;;;;5.55;3.30;;;;;;;19.89;42.30;101186.69;20644785;27;97578;-77
2022/03/02 03:06:09;;;;;;;6.88;3.22;;;;;;;19.82;42.13;101179.13;20645996;28;97006;-78
2022/03/02 03:16:09;;;;;;;4.13;3.00;;;;;;;19.81;42.31;101187.94;20647085;27;102143;-77
2022/03/02 03:26:10;;;;;;;4.20;3.30;;;;;;;19.83;42.16;101180.84;20643914;28;98376;-78
2022/03/02 03:36:11;;;;;;;4.82;3.60;;;;;;;19.80;42.07;101186.25;20645354;28;98151;-77
2022/03/02 03:46:12;;;;;;;4.93;3.22;;;;;;;19.78;42.38;101177.59;20661061;28;97857;-78
2022/03/02 03:56:13;;;;;;;4.75;3.50;;;;;;;19.77;42.14;101172.44;20702518;27;98339;-79
2022/03/02 04:06:14;;;;;;;4.68;3.47;;;;;;;19.77;42.05;101165.41;20672650;27;100970;-79
2022/03/02 04:16:14;;;;;;;5.13;3.65;;;;;;;19.76;41.91;101163.72;20670139;27;98486;-78
2022/03/02 04:26:16;;;;;;;4.80;3.45;;;;;;;19.76;42.31;101161.09;20675483;28;97306;-79
2022/03/02 04:36:16;;;;;;;5.15;3.40;;;;;;;19.73;42.47;101155.19;20658341;28;99092;-78
2022/03/02 04:46:17;;;;;;;5.35;3.50;;;;;;;19.76;41.94;101152.34;20666328;28;97543;-78
2022/03/02 04:56:17;;;;;;;5.25;3.58;;;;;;;19.78;42.14;101140.81;20647752;27;98672;-77
2022/03/02 05:06:19;;;;;;;6.53;3.83;;;;;;;19.90;44.17;101133.19;20647832;27;100979;-79
2022/03/02 05:16:21;;;;;;;8.02;3.97;;;;;;;19.99;44.25;101117.69;20691986;27;96947;-78
2022/03/02 05:26:22;;;;;;;10.55;4.00;;;;;;;20.06;44.44;101127.84;20666262;28;99235;-77
2022/03/02 05:36:23;;;;;;;8.02;4.28;;;;;;;20.10;43.38;101124.94;20676450;27;97654;-77
2022/03/02 05:46:24;;;;;;;6.88;4.05;;;;;;;20.19;44.64;101120.91;20685304;27;97968;-75
2022/03/02 05:56:25;;;;;;;14.38;4.90;;;;;;;20.25;44.28;101122.28;20677243;27;97363;-78
2022/03/02 06:06:32;;;;;;;23.17;7.18;;;;;;;20.26;43.64;101124.84;20656022;27;99253;-79
2022/03/02 06:16:33;;;;;;;18.42;6.75;;;;;;;20.20;40.81;101125.22;20717224;27;97100;-81
2022/03/02 06:26:34;;;;;;;18.52;7.43;;;;;;;20.07;36.92;101135.63;20682794;27;98330;-75
2022/03/02 06:36:35;;;;;;;18.17;8.05;;;;;;;20.08;37.52;101133.81;20648895;28;99518;-75
2022/03/02 06:46:57;;;;;;;14.93;7.07;;;;;;;20.22;39.44;101118.06;20661721;28;97663;-75
2022/03/02 06:57:02;;;;;;;12.80;6.40;;;;;;;20.29;40.37;101118.53;20644818;27;97267;-75
2022/03/02 07:07:03;;;;;;;12.63;6.13;;;;;;;20.39;40.62;101108.28;20621860;27;97121;-75
2022/03/02 07:17:05;;;;;;;14.27;6.68;;;;;;;20.43;41.34;101107.16;20661564;28;97039;-75
2022/03/02 07:27:06;;;;;;;12.88;5.85;;;;;;;20.48;41.40;101095.41;20673630;28;98555;-76
2022/03/02 07:37:09;;;;;;;12.30;5.93;;;;;;;20.54;41.61;101093.31;20674199;27;101775;-74
2022/03/02 07:47:09;;;;;;;12.50;5.93;;;;;;;20.59;41.67;101084.19;20667144;28;97479;-75
2022/03/02 07:57:14;;;;;;;13.63;7.32;;;;;;;20.63;41.57;101062.00;20668728;28;99931;-75
2022/03/02 08:07:15;;;;;;;11.70;8.00;;;;;;;20.68;41.73;101059.06;20668634;28;98474;-74
2022/03/02 08:17:17;;;;;;;11.32;7.80;;;;;;;20.72;41.86;101065.03;20672560;27;97692;-75
2022/03/02 08:27:19;;;;;;;14.23;9.50;;;;;;;20.78;41.51;101047.03;20664637;27;97204;-73
2022/03/02 08:37:20;;;;;;;14.05;9.43;;;;;;;20.81;41.75;101043.34;20658416;27;98489;-75
2022/03/02 08:47:24;;;;;;;16.88;9.88;;;;;;;20.86;41.53;101032.53;20652752;27;97452;-74
2022/03/02 08:57:25;;;;;;;13.93;10.05;;;;;;;20.91;41.26;101035.69;20655395;28;102004;-74
2022/03/02 09:07:27;;;;;;;16.33;9.60;;;;;;;20.94;41.46;101007.38;20658962;28;99266;-75
2022/03/02 09:17:28;;;;;;;19.27;9.35;;;;;;;20.97;41.98;101008.13;20660061;27;97071;-74
2022/03/02 09:27:30;;;;;;;13.18;8.63;;;;;;;20.98;41.88;100997.47;20651689;28;97078;-78
2022/03/02 09:37:37;;;;;;;15.53;8.83;;;;;;;21.01;41.95;100991.19;20659301;28;98920;-75
2022/03/02 09:47:45;;;;;;;11.73;8.10;;;;;;;21.04;41.71;100986.53;20654638;27;98507;-78
2022/03/02 09:57:49;;;;;;;16.38;9.15;;;;;;;21.08;41.89;100968.75;20644528;28;98337;-76
2022/03/02 10:07:57;;;;;;;13.90;8.85;;;;;;;21.07;40.77;100956.53;20645744;27;97904;-76
2022/03/02 10:18:00;;;;;;;13.48;8.65;;;;;;;21.12;40.94;100951.81;20643458;28;98222;-77
2022/03/02 10:28:06;;;;;;;13.00;8.40;;;;;;;21.14;41.31;100942.00;20650401;27;97820;-78
2022/03/02 10:38:15;;;;;;;11.27;8.60;;;;;;;21.19;41.06;100925.88;20646376;28;100307;-77
2022/03/02 10:48:38;;;;;;;13.98;8.77;;;;;;;21.25;41.27;100905.25;20648445;27;97631;-76
2022/03/02 10:58:40;;;;;;;11.93;8.48;;;;;;;21.31;41.71;100897.84;20675274;27;96889;-77
2022/03/02 11:08:43;;;;;;;12.30;8.27;;;;;;;21.39;41.94;100877.09;20674757;28;99218;-77
2022/03/02 11:18:48;;;;;;;10.00;8.07;;;;;;;21.47;41.82;100876.53;20677788;28;97488;-77
2022/03/02 11:28:52;;;;;;;14.80;9.00;;;;;;;21.53;41.55;100850.59;20663785;27;97170;-76
2022/03/02 11:38:56;;;;;;;9.75;8.38;;;;;;;21.60;41.45;100837.84;20664931;28;102509;-77
2022/03/02 11:49:04;;;;;;;12.63;8.80;;;;;;;21.67;41.44;100825.09;20671846;28;99360;-76
2022/03/02 11:59:10;;;;;;;12.85;8.35;;;;;;;21.75;41.14;100815.66;20669272;28;97502;-75
2022/03/02 12:09:29;;;;;;;11.77;7.75;;;;;;;21.82;41.11;100797.59;20670674;28;97669;-77
2022/03/02 12:19:31;;;;;;;10.93;7.88;;;;;;;21.90;40.70;100797.03;20660730;27;97570;-77
2022/03/02 12:29:33;;;;;;;10.73;7.90;;;;;;;21.98;41.12;100778.00;20669323;27;98477;-76
2022/03/02 12:39:35;;;;;;;13.37;7.77;;;;;;;22.02;40.18;100774.16;20665860;28;99668;-77
2022/03/02 12:49:39;;;;;;;12.97;8.13;;;;;;;22.13;40.47;100747.00;20654981;27;98134;-78
2022/03/02 12:59:40;;;;;;;10.88;6.97;;;;;;;22.05;38.69;100737.88;20654628;27;97513;-76
2022/03/02 13:09:49;;;;;;;11.20;6.90;;;;;;;22.16;39.70;100723.88;20658701;27;97190;-75
2022/03/02 13:19:52;;;;;;;9.27;6.40;;;;;;;22.21;40.04;100711.16;20653866;27;97373;-76
2022/03/02 13:30:13;;;;;;;10.52;6.75;;;;;;;22.24;40.08;100683.72;20654394;28;98085;-76
2022/03/02 13:40:32;;;;;;;8.10;6.10;;;;;;;22.29;40.04;100686.00;20651627;27;97268;-78
2022/03/02 13:50:56;;;;;;;8.00;5.85;;;;;;;22.32;40.20;100677.84;20657745;28;97889;-78
2022/03/02 14:01:32;;;;;;;7.30;5.60;;;;;;;22.33;40.01;100669.81;20646134;27;97626;-77
2022/03/02 14:11:39;;;;;;;10.82;5.85;;;;;;;22.35;39.93;100659.97;20596442;28;99428;-77
2022/03/02 14:22:01;;;;;;;7.35;5.55;;;;;;;22.35;40.19;100649.44;20664516;28;97609;-78
2022/03/02 14:32:05;;;;;;;19.85;6.47;;;;;;;22.36;39.84;100656.38;20669998;27;100524;-80
2022/03/02 14:42:17;;;;;;;23.33;7.15;;;;;;;22.35;39.66;100646.78;20658365;28;97653;-79
2022/03/02 14:52:32;;;;;;;25.77;8.33;;;;;;;22.37;40.26;100638.75;20638693;28;97714;-77
2022/03/02 15:02:33;;;;;;;21.48;7.65;;;;;;;22.34;40.20;100639.84;20627500;28;97866;-79
2022/03/02 15:12:36;;;;;;;20.83;7.80;;;;;;;22.26;39.74;100631.66;20648569;28;97177;-79
2022/03/02 15:22:38;;;;;;;18.27;7.57;;;;;;;22.16;39.77;100628.91;20635364;28;99216;-79
2022/03/02 15:32:39;;;;;;;;;;;;;;;22.00;38.39;100615.25;20626451;28;97489;-75
2022/03/02 15:42:48;;;;;;;14.55;6.70;;;;;;;21.85;39.75;100623.38;20637787;28;100249;-75
2022/03/02 15:53:01;;;;;;;17.35;7.13;;;;;;;21.72;40.05;100620.84;20647031;28;96905;-76
2022/03/02 16:03:03;;;;;;;10.17;6.33;;;;;;;21.64;39.69;100620.59;20666538;27;97640;-76
2022/03/02 16:13:12;;;;;;;13.27;6.47;;;;;;;21.52;39.54;100622.31;20646978;27;96981;-76
2022/03/02 16:23:17;;;;;;;17.38;6.22;;;;;;;21.43;37.46;100621.22;20644899;28;97550;-76
2022/03/02 16:33:18;;;;;;;26.50;6.28;;;;;;;21.32;34.95;100623.78;20628929;27;97396;-76
2022/03/02 16:43:20;;;;;;;16.20;6.10;;;;;;;21.26;37.58;100622.47;20642206;28;97570;-75
2022/03/02 16:53:20;;;;;;;16.90;6.03;;;;;;;21.24;39.03;100619.09;20622887;28;99381;-76
2022/03/02 17:03:20;;;;;;;14.88;5.65;;;;;;;21.22;39.41;100628.09;20636027;28;99895;-76
2022/03/02 17:13:22;;;;;;;12.18;5.57;;;;;;;21.16;39.29;100624.09;20636603;28;97978;-75
2022/03/02 17:23:22;;;;;;;11.32;5.20;;;;;;;21.14;39.10;100615.50;20629342;28;97955;-76
2022/03/02 17:33:23;;;;;;;26.08;13.95;;;;;;;21.21;39.75;100621.94;20611464;28;99231;-77
2022/03/02 17:43:24;;;;;;;29.67;14.40;;;;;;;21.26;40.84;100614.56;20644206;28;97573;-76
2022/03/02 17:53:24;;;;;;;21.55;13.02;;;;;;;21.26;41.14;100613.72;20653414;27;96977;-77
2022/03/02 18:03:26;;;;;;;22.30;13.25;;;;;;;21.27;41.19;100613.59;20650338;28;97840;-77
2022/03/02 18:13:26;;;;;;;25.05;12.73;;;;;;;21.27;41.01;100608.34;20640932;27;97590;-76
2022/03/02 18:23:28;;;;;;;21.85;12.32;;;;;;;21.28;40.86;100599.47;20636373;28;97328;-78
2022/03/02 18:33:29;;;;;;;19.63;11.47;;;;;;;21.27;41.28;100604.88;20633903;28;97855;-78
2022/03/02 18:43:29;;;;;;;20.25;11.13;;;;;;;21.26;41.96;100611.94;20627855;28;99264;-79
2022/03/02 18:53:30;;;;;;;18.08;11.02;;;;;;;21.25;41.55;100612.03;20627538;28;98374;-75
2022/03/02 19:03:31;;;;;;;19.42;10.40;;;;;;;21.23;41.65;100606.88;20633398;28;97672;-75
2022/03/02 19:13:33;;;;;;;20.55;11.20;;;;;;;21.23;41.83;100600.78;20645252;28;97499;-78
2022/03/02 19:23:33;;;;;;;19.13;11.27;;;;;;;21.21;41.48;100594.78;20658314;28;101759;-78
2022/03/02 19:33:35;;;;;;;19.58;11.07;;;;;;;21.19;41.67;100583.53;20659389;28;97653;-78
2022/03/02 19:43:37;;;;;;;21.95;12.65;;;;;;;21.19;41.55;100578.25;20650635;27;97226;-79
2022/03/02 19:53:38;;;;;;;18.80;10.68;;;;;;;21.11;42.01;100578.84;20672300;28;100723;-78
2022/03/02 20:03:40;;;;;;;22.15;10.48;;;;;;;21.03;41.77;100574.16;20660749;28;96817;-81
2022/03/02 20:13:41;;;;;;;18.98;9.80;;;;;;;21.01;41.50;100576.03;20656806;27;97840;-79
2022/03/02 20:23:41;;;;;;;17.52;9.30;;;;;;;21.00;41.83;100579.63;20679844;27;97313;-80
2022/03/02 20:33:41;;;;;;;13.73;8.30;;;;;;;20.96;42.17;100575.56;20679635;28;96634;-79
2022/03/02 20:43:42;;;;;;;14.93;8.10;;;;;;;20.93;41.78;100578.41;20685250;28;98381;-79
2022/03/02 20:53:42;;;;;;;14.80;8.32;;;;;;;20.90;42.13;100581.25;20668940;27;99540;-79
2022/03/02 21:03:45;;;;;;;11.98;7.30;;;;;;;20.87;41.87;100579.69;20668785;27;97975;-79
2022/03/02 21:13:46;;;;;;;11.13;7.83;;;;;;;20.84;41.46;100573.81;20664599;28;100861;-80
2022/03/02 21:23:46;;;;;;;13.18;6.93;;;;;;;20.79;42.08;100558.38;20674188;28;97372;-79
2022/03/02 21:33:49;;;;;;;11.70;7.20;;;;;;;20.75;42.55;100565.63;20672786;28;97212;-80
2022/03/02 21:43:49;;;;;;;11.63;7.07;;;;;;;20.70;41.91;100575.63;20661302;28;97810;-80
2022/03/02 21:53:51;;;;;;;11.88;7.20;;;;;;;20.69;42.17;100587.09;20673075;28;97793;-80
2022/03/02 22:03:52;;;;;;;9.32;6.20;;;;;;;20.66;42.07;100584.69;20664983;28;96970;-80
2022/03/02 22:13:52;;;;;;;8.60;6.07;;;;;;;20.63;42.10;100566.50;20655563;28;97142;-78
2022/03/02 22:23:52;;;;;;;10.23;6.50;;;;;;;20.60;42.11;100571.97;20638024;27;97826;-78
2022/03/02 22:33:53;;;;;;;9.93;6.32;;;;;;;20.56;41.70;100563.47;20631375;28;97526;-78
2022/03/02 22:43:53;;;;;;;8.38;5.57;;;;;;;20.52;42.42;100558.53;20642852;28;97304;-78
2022/03/02 22:53:54;;;;;;;8.90;6.05;;;;;;;20.55;42.13;100560.94;20631555;28;97105;-78
2022/03/02 23:03:55;;;;;;;9.48;5.57;;;;;;;20.50;42.24;100555.19;20630592;28;98793;-78
2022/03/02 23:14:01;;;;;;;8.50;5.90;;;;;;;20.47;41.74;100551.81;20629651;27;100548;-79
2022/03/02 23:24:02;;;;;;;7.93;5.32;;;;;;;20.43;42.07;100553.00;20623912;27;101066;-78
2022/03/02 23:34:03;;;;;;;8.35;6.00;;;;;;;20.41;42.34;100544.38;20646231;28;97329;-77
2022/03/02 23:44:03;;;;;;;8.15;5.57;;;;;;;20.39;42.20;100546.25;20636454;27;100881;-77
2022/03/02 23:54:04;;;;;;;6.75;5.25;;;;;;;20.38;42.34;100549.00;20627411;27;97662;-78
